Taft, TX (78390)

1:23 AM CST on December 10, 2016 (GMT -0600)
| | Change Station

Elev -9999 ft 0.00 °N, 0.00 °E | Updated 4 minutes ago

Overcast
Overcast
78 °F
Feels Like 78 °F
N
18
Wind Variable Wind from SSE
Gusts 25 mph

Today
High -- | Low -- °F
--% Chance of Precip.
Yesterday
High -- | Low -- °F
Precip. -- in
Pressure 30.47 in
Visibility 10.0 miles
Clouds Overcast 4400 ft
Dew Point 75 °F
Humidity 88%
Rainfall --
Snow Depth Not available.
7:10 AM 5:34 PM
Waxing Gibbous, 81% visible
METAR KTFP 100715Z AUTO 02008KT 10SM OVC044 09/02 A3047 RMK AO2 T00930018
Pressure 30.47 in
Visibility 10.0 miles
Clouds Overcast 4400 ft
Dew Point 75 °F
Humidity 88%
Rainfall --
Snow Depth Not available.
7:10 AM 5:34 PM
Waxing Gibbous, 81% visible
METAR KTFP 100715Z AUTO 02008KT 10SM OVC044 09/02 A3047 RMK AO2 T00930018

10-Day Weather Forecast

Almanac

Astronomy

Dec. 10, 2016 Rise Set
Actual Time
Civil Twilight
Nautical Twilight
Astronomical Twilight
Moon
Length of Visible Light
Length of Day
Tomorrow will be .
, % of the Moon is Illuminated

Today's Extremes

State Highs State Lows

Community

WunderPhotos

Upload Photos

1,956,527 photos uploaded!

WunderBlog® & News

Nearby

Air Quality

  Air Quality AQ Index Pollutant
Not available.

Snow Depth

Station Depth Elevation

Earthquake Activity

City Distance Mag. Time & Date
Minimum magnitude displayed is 2.5.

Coastal Water Temperatures

Place Temperature

Stations

Nearby Weather Stations

Station Location Temp. Windchill Dew Point Humidity Wind Precip. Elev Updated Type
                   

Watches & Warnings

There are currently no watches in effect.